首页
METAR-TAF:

METAR-TAF

机场 :

佩奇, 匈牙利

纬度: 46-06N, 经度: 018-14E, 海拔: 201米

当前天气观测

该预报发布于39分钟前的15:45 UTC
风速6节,风向西
温度 25°C
湿度 47%
气压 1009 hPa
能见度10公里或以上
1500米以下无云,无积雨云

METAR: LHPP 231545Z 26006KT CAVOK 25/13 Q1009

时间: 18:24 (16:24 UTC)

预报

该预报发布于2小时和9分钟前的14:15 UTC
预报有效从23日的 15点(UTC)到 23日的 24点(UTC)
风速7节,风向西南
能见度10公里或以上
1500米以下无云,无积雨云
几率 30% :
短暂存在
从 23日的 15点(UTC)到 23日的 20点(UTC)
风速15节,风向多变,有时为28节阵风
能見度: 4000
多云层高于4000英尺, 积雨云.
阵雨, 雷暴, 雨

TAF: LHPP 231415Z 2315/2324 23007KT CAVOK PROB30 TEMPO 2315/2320 VRB15G28KT 4000 SHRA TSRA BKN040CB

超过4000个机场的气象观测和天气预报(METAR&TAF报告)。

可查询的气象台以黄色和红色小点在地图上表示。

将鼠标移到小点上方,可查看气象台名称。

然后点击查看天气观测和预报。

如需切换地图:点击带黑十字的绿色按钮放大地图;点击带横线的绿色按钮缩小地图;或者点击绿色箭头查看邻近地区的地图。


METAR-TAF: